Time;durP1;ratioP1;P1;durP2;ratioP2;P2;SDS_P1;SDS_P2;PMS_P1;PMS_P2;Temp;Humidity;BMP_temperature;BMP_pressure;BME280_temperature;BME280_humidity;BME280_pressure;Samples;Min_cycle;Max_cycle;Signal;HPM_P1;HPM_P2
2022/10/26 00:02:08;;;;;;;1.67;1.58;;;17.00;69.60;;;;;;5055248;28;20215;-70
2022/10/26 00:04:34;;;;;;;1.95;1.70;;;17.00;69.60;;;;;;5055511;28;20641;-70
2022/10/26 00:06:59;;;;;;;1.73;1.60;;;17.00;69.60;;;;;;5054552;28;20175;-69
2022/10/26 00:09:25;;;;;;;1.50;1.40;;;17.00;69.60;;;;;;5055333;28;20167;-70
2022/10/26 00:11:51;;;;;;;1.98;1.52;;;17.00;69.60;;;;;;5055662;28;20317;-70
2022/10/26 00:14:17;;;;;;;1.70;1.60;;;17.00;69.60;;;;;;5054331;28;20223;-70
2022/10/26 00:16:42;;;;;;;2.03;1.83;;;17.00;69.60;;;;;;5055539;28;20197;-71
2022/10/26 00:19:08;;;;;;;1.70;1.60;;;17.00;69.60;;;;;;5055091;28;20257;-71
2022/10/26 00:21:33;;;;;;;2.22;1.52;;;17.00;69.60;;;;;;5054564;28;20621;-70
2022/10/26 00:23:59;;;;;;;3.45;1.85;;;17.00;69.60;;;;;;5054864;28;20633;-70
2022/10/26 00:26:24;;;;;;;1.63;1.52;;;17.00;69.60;;;;;;5055364;28;20175;-70
2022/10/26 00:28:53;;;;;;;2.40;1.70;;;17.00;69.60;;;;;;5054661;28;20177;-70
2022/10/26 00:31:19;;;;;;;1.55;1.40;;;17.00;69.60;;;;;;5055061;28;20178;-69
2022/10/26 00:33:45;;;;;;;1.67;1.58;;;17.00;69.70;;;;;;5055322;28;20175;-69
2022/10/26 00:36:12;;;;;;;2.42;1.67;;;17.00;69.60;;;;;;5053849;28;20172;-70
2022/10/26 00:38:44;;;;;;;1.98;1.80;;;17.00;69.60;;;;;;5054789;28;20175;-70
2022/10/26 00:41:13;;;;;;;2.20;2.00;;;16.90;69.60;;;;;;5054747;28;20211;-70
2022/10/26 00:43:38;;;;;;;1.50;1.40;;;17.00;69.60;;;;;;5053170;28;20176;-71
2022/10/26 00:46:05;;;;;;;2.15;1.95;;;17.00;69.60;;;;;;5054635;28;20300;-70
2022/10/26 00:48:41;;;;;;;2.33;1.90;;;17.00;69.60;;;;;;5054906;28;20251;-70
2022/10/26 00:51:12;;;;;;;1.63;1.52;;;17.00;69.60;;;;;;5052535;28;20990;-70
2022/10/26 00:53:38;;;;;;;1.70;1.60;;;17.00;69.70;;;;;;5053506;28;20641;-70
2022/10/26 00:56:03;;;;;;;1.98;1.60;;;17.00;69.60;;;;;;5053828;28;20167;-70
2022/10/26 00:58:29;;;;;;;1.85;1.48;;;17.00;69.60;;;;;;5054843;28;20187;-71
2022/10/26 01:00:54;;;;;;;1.65;1.55;;;17.00;69.70;;;;;;5053454;28;20257;-70
2022/10/26 01:03:20;;;;;;;1.50;1.38;;;17.00;69.60;;;;;;5053542;28;20719;-70
2022/10/26 01:05:46;;;;;;;1.85;1.67;;;16.90;69.60;;;;;;5053133;28;20258;-69
2022/10/26 01:08:12;;;;;;;1.65;1.55;;;16.90;69.60;;;;;;5053047;28;20261;-69
2022/10/26 01:10:38;;;;;;;1.67;1.58;;;16.90;69.60;;;;;;5052672;28;20216;-69
2022/10/26 01:13:03;;;;;;;1.55;1.45;;;16.90;69.60;;;;;;5052019;28;20278;-70
2022/10/26 01:15:55;;;;;;;2.00;1.88;;;16.90;69.60;;;;;;5053145;28;20171;-71
2022/10/26 01:18:24;;;;;;;2.72;1.63;;;16.90;69.60;;;;;;5052079;28;20707;-71
2022/10/26 01:21:12;;;;;;;1.75;1.65;;;16.90;69.60;;;;;;5053148;28;20244;-70
2022/10/26 01:23:53;;;;;;;1.75;1.60;;;16.90;69.60;;;;;;5054324;28;20187;-70
2022/10/26 01:27:03;;;;;;;3.70;1.80;;;16.90;69.60;;;;;;5051997;28;20540;-69
2022/10/26 01:29:58;;;;;;;1.50;1.40;;;16.90;69.70;;;;;;5041702;28;20543;-69
2022/10/26 01:32:35;;;;;;;2.25;1.35;;;16.90;69.60;;;;;;5052140;28;20646;-68
2022/10/26 01:35:13;;;;;;;1.35;1.25;;;16.90;69.60;;;;;;5052560;28;20171;-70
2022/10/26 01:37:48;;;;;;;2.40;1.50;;;16.90;69.60;;;;;;5052735;28;20270;-70
2022/10/26 01:40:22;;;;;;;1.80;1.70;;;16.90;69.60;;;;;;5051721;28;20250;-71
2022/10/26 01:42:49;;;;;;;2.03;1.63;;;16.90;69.70;;;;;;5052263;28;20267;-70
2022/10/26 01:45:15;;;;;;;1.63;1.48;;;16.90;69.70;;;;;;5051472;28;20512;-70
2022/10/26 01:47:41;;;;;;;1.60;1.50;;;16.90;69.70;;;;;;5052455;28;20234;-69
2022/10/26 01:50:06;;;;;;;2.08;1.50;;;16.90;69.70;;;;;;5052355;28;20178;-69
2022/10/26 01:52:32;;;;;;;2.28;1.60;;;16.90;69.70;;;;;;5051807;28;20669;-69
2022/10/26 01:55:03;;;;;;;2.00;1.77;;;16.90;69.70;;;;;;5053370;28;20194;-69
2022/10/26 01:57:31;;;;;;;2.00;1.50;;;16.90;69.70;;;;;;5053521;28;20190;-69
2022/10/26 02:00:10;;;;;;;3.13;1.50;;;16.90;69.70;;;;;;5051305;28;20274;-70
2022/10/26 02:02:42;;;;;;;2.00;1.80;;;16.90;69.70;;;;;;5052331;28;20227;-69
2022/10/26 02:05:09;;;;;;;2.03;1.90;;;16.90;69.80;;;;;;5051978;28;20171;-69
2022/10/26 02:08:12;;;;;;;1.50;1.40;;;16.90;69.70;;;;;;5051368;28;20258;-69
2022/10/26 02:11:01;;;;;;;1.70;1.60;;;16.90;69.70;;;;;;5053195;28;20659;-69
2022/10/26 02:13:45;;;;;;;2.08;1.60;;;16.90;69.70;;;;;;5052335;28;20230;-70
2022/10/26 02:16:21;;;;;;;1.80;1.70;;;16.90;69.70;;;;;;5051918;28;20258;-70
2022/10/26 02:19:09;;;;;;;2.38;2.00;;;16.90;69.70;;;;;;5052469;28;20179;-70
2022/10/26 02:21:43;;;;;;;2.88;1.60;;;16.90;69.70;;;;;;5051364;28;20294;-70
2022/10/26 02:24:10;;;;;;;1.60;1.50;;;16.90;69.70;;;;;;5051703;28;20258;-70
2022/10/26 02:26:35;;;;;;;1.60;1.50;;;16.90;69.80;;;;;;5051977;28;20270;-70
2022/10/26 02:29:03;;;;;;;2.00;1.90;;;16.90;69.80;;;;;;5050702;28;20202;-69
2022/10/26 02:31:29;;;;;;;1.70;1.60;;;16.90;69.80;;;;;;5051956;28;20240;-69
2022/10/26 02:33:54;;;;;;;1.90;1.70;;;16.90;69.80;;;;;;5051920;28;20254;-69
2022/10/26 02:36:26;;;;;;;1.90;1.80;;;16.80;69.70;;;;;;5050840;28;20171;-69
2022/10/26 02:38:51;;;;;;;2.35;1.60;;;16.90;69.80;;;;;;5051707;28;20309;-70
2022/10/26 02:41:17;;;;;;;1.60;1.50;;;16.80;69.80;;;;;;5051311;28;20298;-70
2022/10/26 02:43:46;;;;;;;1.80;1.70;;;16.80;69.80;;;;;;5051177;28;20236;-70
2022/10/26 02:46:14;;;;;;;1.75;1.65;;;16.90;69.80;;;;;;5052515;28;20540;-70
2022/10/26 02:48:39;;;;;;;2.10;1.90;;;16.90;69.90;;;;;;5050782;28;20179;-69
2022/10/26 02:51:11;;;;;;;2.70;1.55;;;16.80;69.90;;;;;;5051539;28;20171;-69
2022/10/26 02:53:39;;;;;;;6.55;2.03;;;16.90;70.00;;;;;;5051394;28;20717;-69
2022/10/26 02:56:18;;;;;;;1.80;1.70;;;16.80;69.90;;;;;;5050451;28;20201;-69
2022/10/26 02:58:46;;;;;;;1.58;1.40;;;16.80;69.80;;;;;;5051877;28;20240;-69
2022/10/26 03:01:12;;;;;;;6.28;1.70;;;16.80;69.80;;;;;;5052523;28;20207;-70
2022/10/26 03:03:37;;;;;;;1.40;1.30;;;16.80;69.90;;;;;;5050766;28;20657;-70
2022/10/26 03:06:03;;;;;;;1.98;1.77;;;16.80;69.90;;;;;;5051096;28;20175;-69
2022/10/26 03:08:29;;;;;;;1.83;1.67;;;16.80;69.80;;;;;;5051484;28;20175;-69
2022/10/26 03:10:54;;;;;;;3.20;1.77;;;16.80;69.80;;;;;;5052010;28;20175;-70
2022/10/26 03:13:20;;;;;;;4.03;1.70;;;16.80;69.90;;;;;;5052335;28;20227;-70
2022/10/26 03:15:45;;;;;;;1.65;1.45;;;16.80;69.90;;;;;;5052654;28;20180;-70
2022/10/26 03:18:11;;;;;;;1.70;1.60;;;16.80;69.90;;;;;;5051538;28;20179;-71
2022/10/26 03:20:36;;;;;;;1.80;1.60;;;16.80;69.90;;;;;;5052467;28;20182;-71
2022/10/26 03:23:02;;;;;;;1.63;1.50;;;16.80;69.90;;;;;;5052007;28;20206;-70
2022/10/26 03:25:27;;;;;;;2.13;1.60;;;16.80;69.90;;;;;;5051944;28;20171;-70
2022/10/26 03:28:00;;;;;;;1.70;1.60;;;16.80;69.90;;;;;;5052546;28;20524;-69
2022/10/26 03:30:26;;;;;;;1.48;1.38;;;16.80;69.90;;;;;;5052557;28;20195;-69
2022/10/26 03:32:51;;;;;;;1.70;1.60;;;16.80;69.90;;;;;;5051845;28;20610;-69
2022/10/26 03:35:17;;;;;;;1.55;1.45;;;16.80;69.90;;;;;;5053673;28;20175;-69
2022/10/26 03:37:42;;;;;;;1.98;1.83;;;16.80;69.90;;;;;;5055346;28;20220;-70
2022/10/26 03:40:08;;;;;;;1.63;1.50;;;16.80;69.90;;;;;;5056021;28;20262;-70
2022/10/26 03:42:37;;;;;;;1.63;1.52;;;16.80;69.80;;;;;;5055982;28;20285;-71
2022/10/26 03:45:03;;;;;;;1.50;1.40;;;16.80;69.90;;;;;;5055119;28;20172;-70
2022/10/26 03:47:28;;;;;;;2.03;1.83;;;16.80;69.80;;;;;;5055959;28;20175;-70
2022/10/26 03:49:54;;;;;;;1.75;1.65;;;16.80;69.90;;;;;;5055885;28;20178;-70
2022/10/26 03:52:19;;;;;;;1.80;1.60;;;16.80;69.90;;;;;;5054925;28;20575;-70
2022/10/26 03:54:45;;;;;;;1.80;1.70;;;16.80;69.90;;;;;;5056059;28;20212;-70
2022/10/26 03:57:10;;;;;;;3.55;1.63;;;16.80;69.90;;;;;;5055713;28;20320;-70
2022/10/26 03:59:36;;;;;;;2.15;1.63;;;16.80;69.90;;;;;;5055117;28;20182;-70
2022/10/26 04:02:01;;;;;;;2.17;1.42;;;16.80;69.90;;;;;;5055431;28;20214;-70
2022/10/26 04:04:27;;;;;;;2.67;1.80;;;16.80;69.90;;;;;;5055705;28;20229;-69
2022/10/26 04:06:52;;;;;;;1.80;1.70;;;16.80;69.90;;;;;;5054813;28;20225;-69
2022/10/26 04:09:18;;;;;;;2.10;1.42;;;16.80;69.90;;;;;;5055431;28;20194;-69
2022/10/26 04:11:43;;;;;;;2.38;1.80;;;16.80;69.90;;;;;;5055488;28;20536;-70
2022/10/26 04:14:09;;;;;;;1.70;1.60;;;16.80;70.70;;;;;;5054213;28;20223;-70
2022/10/26 04:16:34;;;;;;;2.17;1.80;;;16.80;69.90;;;;;;5055639;28;20179;-70
2022/10/26 04:19:00;;;;;;;2.08;1.90;;;16.80;69.90;;;;;;5055043;28;20178;-71
2022/10/26 04:21:25;;;;;;;2.85;2.08;;;16.80;69.90;;;;;;5054447;28;20424;-70
2022/10/26 04:23:51;;;;;;;1.55;1.45;;;16.80;69.90;;;;;;5055563;28;20172;-70
2022/10/26 04:26:16;;;;;;;1.67;1.58;;;16.80;69.90;;;;;;5055152;28;20179;-70
2022/10/26 04:28:42;;;;;;;2.65;1.70;;;16.80;69.90;;;;;;5054693;28;20167;-70
2022/10/26 04:31:07;;;;;;;3.55;1.92;;;16.80;69.90;;;;;;5054864;28;20171;-70
2022/10/26 04:33:33;;;;;;;1.60;1.50;;;16.80;69.90;;;;;;5055177;28;20178;-69
2022/10/26 04:36:02;;;;;;;1.60;1.50;;;16.70;69.90;;;;;;5054062;28;20228;-70
2022/10/26 04:38:27;;;;;;;1.90;1.70;;;16.80;69.90;;;;;;5054926;28;20660;-70
2022/10/26 04:40:53;;;;;;;1.67;1.58;;;16.80;69.90;;;;;;5055166;28;20175;-71
2022/10/26 04:43:18;;;;;;;1.80;1.70;;;16.70;69.90;;;;;;5054093;28;20211;-71
2022/10/26 04:45:44;;;;;;;1.73;1.50;;;16.70;69.90;;;;;;5054543;28;20171;-70
2022/10/26 04:48:10;;;;;;;5.00;1.90;;;16.70;69.80;;;;;;5053225;28;20174;-70
2022/10/26 04:50:36;;;;;;;2.63;1.73;;;16.70;69.90;;;;;;5054899;28;20183;-70
2022/10/26 04:53:02;;;;;;;2.97;2.22;;;16.70;69.90;;;;;;5054635;28;20175;-70
2022/10/26 04:55:27;;;;;;;1.70;1.58;;;16.70;69.90;;;;;;5054166;28;20637;-70
2022/10/26 04:57:53;;;;;;;3.03;1.48;;;16.70;69.80;;;;;;5054651;28;20539;-70
2022/10/26 05:00:18;;;;;;;1.60;1.50;;;16.70;69.90;;;;;;5054405;28;20654;-70
2022/10/26 05:02:44;;;;;;;1.90;1.80;;;16.70;69.90;;;;;;5053749;28;20696;-70
2022/10/26 05:05:09;;;;;;;2.33;1.70;;;16.70;69.90;;;;;;5054225;28;20560;-70
2022/10/26 05:07:35;;;;;;;2.05;1.80;;;16.70;70.00;;;;;;5054719;28;20186;-69
2022/10/26 05:10:00;;;;;;;3.45;1.90;;;16.70;69.90;;;;;;5053632;28;20174;-70
2022/10/26 05:12:26;;;;;;;1.50;1.40;;;16.70;69.90;;;;;;5054256;28;20186;-70
2022/10/26 05:14:51;;;;;;;1.80;1.70;;;16.70;69.90;;;;;;5054133;28;20708;-71
2022/10/26 05:17:17;;;;;;;1.63;1.52;;;16.70;69.90;;;;;;5053322;28;20179;-71
2022/10/26 05:19:42;;;;;;;1.95;1.83;;;16.70;69.90;;;;;;5054154;28;20172;-71
2022/10/26 05:22:08;;;;;;;2.08;1.80;;;16.70;69.90;;;;;;5053989;28;20666;-70
2022/10/26 05:24:33;;;;;;;1.90;1.80;;;16.70;69.90;;;;;;5053565;28;20269;-70
2022/10/26 05:26:59;;;;;;;2.30;1.70;;;16.60;69.90;;;;;;5053719;28;20611;-70
2022/10/26 05:29:24;;;;;;;2.08;1.60;;;16.70;70.00;;;;;;5054297;28;20172;-70
2022/10/26 05:31:50;;;;;;;1.67;1.50;;;16.70;70.00;;;;;;5053294;28;20171;-69
2022/10/26 05:34:16;;;;;;;1.90;1.70;;;16.70;70.00;;;;;;5053907;28;20179;-69
2022/10/26 05:36:41;;;;;;;1.85;1.75;;;16.70;70.00;;;;;;5054072;28;20174;-70
2022/10/26 05:39:07;;;;;;;2.25;1.60;;;16.70;70.00;;;;;;5053013;28;20189;-70
2022/10/26 05:41:32;;;;;;;1.60;1.50;;;16.70;70.00;;;;;;5053648;28;20599;-71
2022/10/26 05:43:58;;;;;;;1.77;1.67;;;16.70;70.00;;;;;;5053626;28;20183;-71
2022/10/26 05:46:23;;;;;;;2.05;1.73;;;16.70;70.00;;;;;;5053076;28;20167;-70
2022/10/26 05:48:49;;;;;;;2.08;1.50;;;16.70;70.00;;;;;;5053797;28;20665;-70
2022/10/26 05:51:15;;;;;;;1.63;1.50;;;16.70;70.00;;;;;;5053285;28;20198;-70
2022/10/26 05:53:40;;;;;;;1.92;1.80;;;16.70;70.00;;;;;;5053386;28;20167;-70
2022/10/26 05:56:19;;;;;;;1.92;1.77;;;16.70;70.00;;;;;;5053474;28;20548;-70
2022/10/26 05:58:46;;;;;;;1.55;1.45;;;16.70;70.10;;;;;;5052602;28;20179;-70
2022/10/26 06:01:44;;;;;;;2.10;1.90;;;16.70;70.10;;;;;;5053069;28;20695;-70
2022/10/26 06:04:16;;;;;;;1.77;1.65;;;16.70;70.10;;;;;;5050793;28;20183;-69
2022/10/26 06:06:44;;;;;;;1.65;1.52;;;16.60;70.00;;;;;;5051533;28;20317;-70
2022/10/26 06:09:16;;;;;;;1.88;1.77;;;16.70;70.00;;;;;;5053046;28;20179;-69
2022/10/26 06:11:41;;;;;;;2.72;1.60;;;16.70;70.00;;;;;;5053219;28;20178;-70
2022/10/26 06:14:07;;;;;;;2.17;1.77;;;16.70;70.10;;;;;;5052171;28;20223;-70
2022/10/26 06:16:43;;;;;;;2.00;1.80;;;16.60;70.00;;;;;;5051925;28;20614;-70
2022/10/26 06:19:23;;;;;;;1.85;1.75;;;16.70;70.00;;;;;;5052860;28;20641;-71
2022/10/26 06:22:09;;;;;;;2.30;2.10;;;16.70;70.10;;;;;;5051699;28;20211;-70
2022/10/26 06:25:01;;;;;;;1.77;1.67;;;16.70;70.00;;;;;;5052153;28;20657;-70
2022/10/26 06:27:36;;;;;;;2.20;2.00;;;16.60;70.00;;;;;;5051564;28;20601;-69
2022/10/26 06:30:11;;;;;;;2.03;1.85;;;16.60;70.00;;;;;;5052631;28;20182;-70
2022/10/26 06:32:44;;;;;;;3.08;2.15;;;16.60;70.00;;;;;;5052661;28;20174;-69
2022/10/26 06:35:31;;;;;;;2.05;1.83;;;16.60;70.00;;;;;;5050703;28;20190;-70
2022/10/26 06:37:59;;;;;;;1.98;1.77;;;16.60;69.90;;;;;;5052689;28;20228;-70
2022/10/26 06:40:24;;;;;;;2.00;1.90;;;16.70;69.90;;;;;;5052849;28;20187;-70
2022/10/26 06:42:50;;;;;;;2.20;2.00;;;16.80;71.10;;;;;;5050855;28;20207;-72
2022/10/26 06:45:16;;;;;;;2.42;2.00;;;16.80;70.10;;;;;;5052285;28;20228;-70
2022/10/26 06:47:58;;;;;;;3.30;2.10;;;16.90;70.00;;;;;;5052087;28;20638;-70
2022/10/26 06:50:37;;;;;;;2.45;1.90;;;17.00;70.00;;;;;;5051597;28;20661;-68
2022/10/26 06:53:22;;;;;;;2.15;2.03;;;17.20;69.70;;;;;;5052518;28;20217;-71
2022/10/26 06:55:48;;;;;;;3.08;1.92;;;17.30;69.30;;;;;;5050652;28;20217;-70
2022/10/26 06:58:22;;;;;;;4.22;2.33;;;17.50;69.10;;;;;;5051302;28;20175;-69
2022/10/26 07:00:48;;;;;;;2.65;1.83;;;17.70;68.90;;;;;;5052674;28;20179;-69
2022/10/26 07:03:14;;;;;;;3.83;1.92;;;17.80;68.60;;;;;;5051604;28;20215;-70
2022/10/26 07:05:40;;;;;;;3.58;2.17;;;18.00;68.20;;;;;;5052736;28;20671;-70
2022/10/26 07:08:05;;;;;;;3.20;2.17;;;18.10;67.80;;;;;;5050955;28;20559;-68
2022/10/26 07:10:31;;;;;;;8.70;2.30;;;18.20;67.40;;;;;;5053863;28;20182;-68
2022/10/26 07:12:57;;;;;;;3.97;1.95;;;18.40;67.00;;;;;;5056346;28;20220;-67
2022/10/26 07:15:22;;;;;;;2.38;1.80;;;18.50;66.60;;;;;;5056810;28;20511;-68
2022/10/26 07:17:48;;;;;;;4.40;1.88;;;18.50;66.50;;;;;;5055798;28;20175;-67
2022/10/26 07:20:15;;;;;;;2.55;2.08;;;18.50;66.40;;;;;;5056287;28;20175;-67
2022/10/26 07:22:41;;;;;;;4.90;2.00;;;18.50;66.40;;;;;;5056027;28;20207;-67
2022/10/26 07:25:07;;;;;;;3.00;1.90;;;18.50;66.50;;;;;;5055891;28;20285;-67
2022/10/26 07:27:33;;;;;;;2.47;1.85;;;18.50;66.60;;;;;;5056389;28;20206;-67
2022/10/26 07:29:58;;;;;;;3.03;2.00;;;18.40;66.60;;;;;;5055318;28;20671;-66
2022/10/26 07:32:24;;;;;;;3.42;2.28;;;18.30;66.90;;;;;;5056055;28;20568;-69
2022/10/26 07:34:49;;;;;;;3.17;1.75;;;18.30;67.10;;;;;;5056153;28;20637;-71
2022/10/26 07:37:15;;;;;;;3.03;1.63;;;18.30;67.30;;;;;;5054922;28;20622;-71
2022/10/26 07:39:40;;;;;;;4.32;2.00;;;18.30;67.60;;;;;;5056317;28;20171;-71
2022/10/26 07:42:06;;;;;;;3.95;2.00;;;18.20;67.70;;;;;;5055749;28;20211;-71
2022/10/26 07:44:31;;;;;;;2.10;1.77;;;18.10;67.90;;;;;;5055411;28;20171;-72
2022/10/26 07:46:57;;;;;;;3.40;1.75;;;18.00;68.20;;;;;;5055388;28;20203;-73
2022/10/26 07:49:22;;;;;;;2.00;1.90;;;18.00;68.50;;;;;;5055888;28;20693;-73
2022/10/26 07:51:48;;;;;;;2.05;1.73;;;17.90;68.40;;;;;;5055060;28;20233;-73
2022/10/26 07:54:14;;;;;;;3.10;1.95;;;18.00;68.40;;;;;;5055322;28;20167;-73
2022/10/26 07:56:39;;;;;;;3.88;1.90;;;18.00;68.50;;;;;;5055880;28;20221;-72
2022/10/26 07:59:05;;;;;;;2.25;1.95;;;18.00;68.50;;;;;;5055085;28;20175;-69
2022/10/26 08:01:30;;;;;;;2.53;2.00;;;18.10;68.60;;;;;;5055887;28;20203;-72
2022/10/26 08:03:56;;;;;;;3.88;1.90;;;18.00;68.40;;;;;;5055648;28;20229;-73
2022/10/26 08:06:21;;;;;;;2.25;2.05;;;18.00;68.50;;;;;;5054690;28;20204;-71
2022/10/26 08:08:47;;;;;;;3.13;1.70;;;18.00;68.60;;;;;;5055772;28;20180;-72
2022/10/26 08:11:13;;;;;;;3.83;2.00;;;18.00;68.60;;;;;;5055457;28;20175;-71
2022/10/26 08:13:39;;;;;;;3.90;1.95;;;18.00;68.70;;;;;;5054739;28;20219;-72
2022/10/26 08:16:05;;;;;;;2.15;1.73;;;18.00;68.80;;;;;;5055256;28;20183;-70
2022/10/26 08:18:30;;;;;;;1.95;1.77;;;18.00;68.80;;;;;;5055794;28;20258;-73
2022/10/26 08:21:00;;;;;;;2.15;1.80;;;18.00;68.90;;;;;;5054380;28;20725;-72
2022/10/26 08:23:26;;;;;;;3.25;1.90;;;18.00;69.00;;;;;;5055531;28;20219;-72
2022/10/26 08:25:52;;;;;;;4.00;2.35;;;18.00;69.00;;;;;;5055524;28;20233;-71
2022/10/26 08:28:17;;;;;;;2.53;1.70;;;18.00;69.00;;;;;;5053189;28;20179;-71
2022/10/26 08:30:43;;;;;;;3.65;1.80;;;18.00;69.10;;;;;;5055321;28;20182;-72
2022/10/26 08:33:09;;;;;;;2.60;1.85;;;18.00;69.00;;;;;;5054198;28;20178;-71
2022/10/26 08:35:34;;;;;;;3.78;1.73;;;18.00;68.90;;;;;;5054956;28;20175;-70
2022/10/26 08:38:00;;;;;;;2.08;1.75;;;18.10;69.00;;;;;;5054994;28;20171;-70
2022/10/26 08:40:28;;;;;;;2.83;1.55;;;18.10;69.00;;;;;;5054542;28;20175;-71
2022/10/26 08:43:01;;;;;;;2.15;2.00;;;18.10;69.00;;;;;;5053807;28;20218;-71
2022/10/26 08:45:31;;;;;;;3.13;2.08;;;18.10;69.10;;;;;;5053806;28;20179;-70
2022/10/26 08:48:00;;;;;;;3.28;2.33;;;18.10;69.10;;;;;;5052795;28;20175;-70
2022/10/26 08:50:36;;;;;;;1.98;1.77;;;18.10;69.30;;;;;;5055084;28;20226;-69
2022/10/26 08:53:28;;;;;;;2.17;1.60;;;18.20;69.30;;;;;;5053251;28;20641;-69
2022/10/26 08:56:17;;;;;;;3.67;2.20;;;18.20;69.30;;;;;;5052932;28;20175;-69
2022/10/26 08:58:48;;;;;;;2.67;1.80;;;18.20;69.40;;;;;;5054922;28;20186;-70
2022/10/26 09:01:14;;;;;;;2.97;1.95;;;18.20;69.40;;;;;;5054161;28;20178;-70
2022/10/26 09:03:40;;;;;;;2.70;2.05;;;18.20;69.40;;;;;;5053494;28;20183;-70
2022/10/26 09:06:11;;;;;;;3.45;2.45;;;18.20;69.40;;;;;;5054385;28;20178;-69
2022/10/26 09:08:58;;;;;;;3.83;1.77;;;18.20;69.30;;;;;;5052769;28;20185;-69
2022/10/26 09:11:35;;;;;;;3.53;2.10;;;18.30;69.40;;;;;;5054614;28;20261;-69
2022/10/26 09:14:06;;;;;;;2.95;1.95;;;18.30;69.50;;;;;;5052822;28;20234;-70
2022/10/26 09:16:47;;;;;;;3.70;1.70;;;18.40;69.50;;;;;;5053648;28;20194;-70
2022/10/26 09:19:24;;;;;;;2.80;1.90;;;18.40;69.50;;;;;;5054018;28;20179;-70
2022/10/26 09:21:58;;;;;;;1.60;1.50;;;18.40;69.50;;;;;;5054566;28;20680;-69
2022/10/26 09:24:33;;;;;;;2.88;2.03;;;18.40;69.60;;;;;;5053649;28;20175;-69
2022/10/26 09:27:08;;;;;;;2.08;1.50;;;18.40;69.60;;;;;;5052879;28;20185;-69
2022/10/26 09:29:37;;;;;;;6.38;2.20;;;18.40;69.60;;;;;;5053600;28;20170;-69
2022/10/26 09:32:03;;;;;;;2.78;1.90;;;18.40;69.60;;;;;;5052407;28;20244;-69
2022/10/26 09:34:41;;;;;;;2.88;2.00;;;18.40;69.60;;;;;;5052645;28;20171;-70
2022/10/26 09:37:24;;;;;;;2.63;1.90;;;18.50;69.70;;;;;;5052058;28;20212;-70
2022/10/26 09:40:20;;;;;;;1.90;1.58;;;18.50;69.60;;;;;;5052701;28;20175;-70
2022/10/26 09:42:51;;;;;;;2.72;1.60;;;18.50;69.60;;;;;;5053948;28;20207;-70
2022/10/26 09:45:23;;;;;;;3.30;1.70;;;18.50;69.70;;;;;;5052020;28;20175;-70
2022/10/26 09:47:51;;;;;;;2.88;1.73;;;18.50;69.70;;;;;;5052537;28;20631;-69
2022/10/26 09:50:23;;;;;;;2.90;1.88;;;18.50;69.80;;;;;;5052220;28;20179;-69
2022/10/26 09:52:48;;;;;;;3.08;2.15;;;18.50;69.90;;;;;;5052339;28;20204;-69
2022/10/26 09:55:14;;;;;;;2.10;1.63;;;18.50;70.00;;;;;;5053508;28;20220;-70
2022/10/26 09:57:41;;;;;;;3.08;2.08;;;18.50;70.00;;;;;;5052822;28;20232;-69
2022/10/26 10:00:14;;;;;;;2.60;2.13;;;18.50;70.00;;;;;;5052278;28;20175;-70
2022/10/26 10:02:44;;;;;;;2.53;1.75;;;18.50;70.00;;;;;;5053571;28;20669;-69
2022/10/26 10:05:28;;;;;;;1.65;1.50;;;18.50;69.90;;;;;;5051208;28;20202;-69
2022/10/26 10:08:17;;;;;;;1.92;1.73;;;18.50;70.00;;;;;;5053629;28;20175;-68
2022/10/26 10:11:02;;;;;;;2.05;1.80;;;18.60;70.10;;;;;;5050178;28;20186;-69
2022/10/26 10:13:29;;;;;;;3.05;1.65;;;18.50;70.00;;;;;;5052324;28;20221;-69
2022/10/26 10:16:04;;;;;;;2.92;1.90;;;18.50;70.10;;;;;;5052303;28;20225;-69
2022/10/26 10:18:30;;;;;;;2.33;1.63;;;18.40;70.10;;;;;;5051861;28;20174;-69
2022/10/26 10:20:56;;;;;;;3.70;1.83;;;18.40;70.20;;;;;;5052513;28;20270;-69
2022/10/26 10:23:30;;;;;;;2.53;1.85;;;18.40;70.30;;;;;;5051969;28;20688;-69
2022/10/26 10:26:10;;;;;;;2.30;1.65;;;18.40;70.30;;;;;;5051155;28;20240;-68
2022/10/26 10:28:35;;;;;;;1.98;1.67;;;18.40;70.40;;;;;;5053256;28;20182;-69
2022/10/26 10:31:16;;;;;;;2.53;1.83;;;18.40;70.40;;;;;;5052041;28;20171;-69
2022/10/26 10:33:44;;;;;;;3.90;2.20;;;18.30;70.30;;;;;;5052329;28;20203;-69
2022/10/26 10:36:12;;;;;;;3.10;1.80;;;18.30;70.50;;;;;;5052737;28;20182;-69
2022/10/26 10:38:48;;;;;;;2.72;1.85;;;18.30;70.50;;;;;;5051604;28;20183;-70
2022/10/26 10:41:16;;;;;;;2.67;1.70;;;18.40;70.60;;;;;;5050427;28;20705;-70
2022/10/26 10:43:50;;;;;;;2.65;1.85;;;18.40;70.50;;;;;;5051729;28;20252;-69
2022/10/26 10:46:20;;;;;;;1.83;1.55;;;18.40;70.40;;;;;;5051419;28;20174;-68
2022/10/26 10:48:47;;;;;;;3.00;1.88;;;18.40;70.30;;;;;;5050896;28;20198;-69
2022/10/26 10:51:16;;;;;;;2.22;1.90;;;18.50;70.20;;;;;;5052359;28;20634;-68
2022/10/26 10:53:54;;;;;;;3.70;1.70;;;18.50;70.20;;;;;;5051147;28;20623;-69
2022/10/26 10:56:33;;;;;;;1.75;1.65;;;18.50;70.10;;;;;;5051332;28;20206;-69
2022/10/26 10:59:05;;;;;;;2.58;1.88;;;18.50;70.10;;;;;;5051227;28;20257;-69
2022/10/26 11:01:35;;;;;;;1.92;1.35;;;18.50;70.00;;;;;;5051735;28;20199;-69
2022/10/26 11:04:20;;;;;;;1.77;1.45;;;18.50;70.90;;;;;;5051343;28;20183;-68
2022/10/26 11:06:45;;;;;;;2.80;1.42;;;18.50;70.10;;;;;;5052601;28;20250;-68
2022/10/26 11:09:13;;;;;;;2.30;1.50;;;18.50;70.10;;;;;;5050497;28;20210;-68
2022/10/26 11:11:55;;;;;;;1.70;1.55;;;18.50;70.00;;;;;;5051351;28;20541;-68
2022/10/26 11:14:36;;;;;;;2.17;1.40;;;18.60;70.10;;;;;;5052144;28;20235;-68
2022/10/26 11:17:13;;;;;;;1.92;1.40;;;18.60;70.10;;;;;;5050538;28;20255;-68
2022/10/26 11:19:50;;;;;;;1.75;1.52;;;18.60;70.00;;;;;;5051396;28;20514;-69
2022/10/26 11:22:21;;;;;;;3.30;1.95;;;18.60;70.00;;;;;;5051422;28;20206;-69
2022/10/26 11:24:49;;;;;;;2.85;1.42;;;18.60;70.00;;;;;;5052852;28;20178;-68
2022/10/26 11:27:33;;;;;;;1.92;1.63;;;18.70;69.90;;;;;;5050900;28;20183;-68
2022/10/26 11:30:16;;;;;;;2.60;1.60;;;18.70;69.90;;;;;;5050281;28;20175;-68
2022/10/26 11:32:59;;;;;;;1.40;1.30;;;18.70;69.90;;;;;;5052337;28;20541;-68
2022/10/26 11:35:57;;;;;;;1.67;1.58;;;18.70;69.80;;;;;;5051688;28;20179;-68
2022/10/26 11:38:33;;;;;;;3.95;2.10;;;18.70;69.70;;;;;;5051073;28;20638;-68
2022/10/26 11:41:20;;;;;;;1.48;1.38;;;18.80;69.80;;;;;;5050621;28;20622;-68
2022/10/26 11:43:47;;;;;;;1.58;1.20;;;18.70;69.70;;;;;;5051804;28;20191;-69
2022/10/26 11:46:27;;;;;;;1.45;1.35;;;18.70;69.70;;;;;;5050867;28;20669;-68
2022/10/26 11:49:23;;;;;;;2.78;1.65;;;18.80;69.70;;;;;;5051336;28;20178;-68
2022/10/26 11:51:56;;;;;;;2.25;1.60;;;18.80;69.70;;;;;;5041697;28;20192;-68
2022/10/26 11:54:32;;;;;;;3.20;1.25;;;18.80;69.70;;;;;;5051152;28;20182;-68
2022/10/26 11:56:58;;;;;;;1.77;1.58;;;18.70;69.80;;;;;;5054415;28;20171;-68
2022/10/26 11:59:28;;;;;;;1.65;1.45;;;18.70;69.80;;;;;;5054088;28;20179;-69
2022/10/26 12:01:56;;;;;;;2.42;1.30;;;18.70;69.90;;;;;;5055673;28;20348;-69
2022/10/26 12:04:23;;;;;;;1.70;1.60;;;18.70;70.10;;;;;;5053952;28;20179;-68
2022/10/26 12:06:49;;;;;;;1.92;1.50;;;18.60;70.10;;;;;;5054711;28;20175;-68
2022/10/26 12:09:16;;;;;;;2.05;1.85;;;18.60;70.20;;;;;;5054334;28;20178;-68
2022/10/26 12:11:59;;;;;;;2.38;1.88;;;18.60;70.30;;;;;;5053810;28;20171;-68
2022/10/26 12:14:57;;;;;;;1.75;1.50;;;18.50;70.40;;;;;;5054228;28;20227;-68
2022/10/26 12:17:30;;;;;;;1.75;1.60;;;18.50;70.40;;;;;;5046328;28;20198;-69
2022/10/26 12:20:22;;;;;;;1.50;1.40;;;18.50;70.40;;;;;;5053805;28;20175;-69
2022/10/26 12:22:49;;;;;;;1.70;1.38;;;18.50;70.40;;;;;;5054330;28;20229;-68
2022/10/26 12:25:14;;;;;;;1.60;1.50;;;18.50;70.40;;;;;;5053383;28;20254;-68
2022/10/26 12:27:40;;;;;;;1.35;1.15;;;18.50;70.40;;;;;;5055512;28;20175;-68
2022/10/26 12:30:17;;;;;;;1.50;1.38;;;18.60;70.30;;;;;;5054843;28;20229;-68
2022/10/26 12:32:43;;;;;;;2.45;1.48;;;18.60;70.10;;;;;;5054428;28;20493;-68
2022/10/26 12:35:31;;;;;;;1.80;1.50;;;18.60;70.10;;;;;;5054859;28;20170;-69
2022/10/26 12:37:57;;;;;;;2.05;1.50;;;18.60;70.00;;;;;;5054779;28;20666;-69
2022/10/26 12:40:32;;;;;;;1.45;1.35;;;18.60;69.90;;;;;;5053209;28;20214;-70
2022/10/26 12:43:23;;;;;;;1.73;1.33;;;18.70;69.90;;;;;;5054740;28;20246;-69
2022/10/26 12:46:10;;;;;;;1.55;1.13;;;18.70;69.90;;;;;;5054618;28;20534;-69
2022/10/26 12:48:43;;;;;;;1.15;1.05;;;18.70;69.80;;;;;;5054139;28;20179;-69
2022/10/26 12:51:18;;;;;;;2.08;1.38;;;18.70;69.80;;;;;;5053425;28;20183;-69
2022/10/26 12:53:49;;;;;;;1.33;1.23;;;18.70;69.80;;;;;;5054087;28;20174;-69
2022/10/26 12:56:17;;;;;;;1.60;1.35;;;18.70;69.70;;;;;;5053617;28;20167;-69
2022/10/26 12:59:37;;;;;;;2.63;1.65;;;18.80;69.70;;;;;;5053645;28;20519;-69
2022/10/26 13:02:11;;;;;;;1.60;1.13;;;18.70;69.60;;;;;;5031398;28;20326;-69
2022/10/26 13:04:52;;;;;;;1.95;1.60;;;18.70;69.70;;;;;;5051194;28;20179;-68
2022/10/26 13:07:23;;;;;;;2.00;1.60;;;18.80;69.80;;;;;;5052225;28;20191;-68